Aviation Digital Data Service (ADDS)

Output produced by METARs form (2354 UTC 03 December 2016)
found at http://aviationweather.gov/adds/metars/
 
KPHL 032326Z 0400/0506 30010KT P6SM BKN050 
     FM040200 30007KT P6SM BKN050 
     FM041400 33008KT P6SM SCT050 
     FM042100 VRB03KT P6SM OVC150 
     FM050300 VRB05KT P6SM OVC070